Adams, NE

10:50 AM CST on December 22, 2014 (GMT -0600)
Nebraska City Municipal | Change Station
CLOSE
Current Station
Airport
Location: Nebraska City,
Elevation: 1161 ft
Nearby Weather Stations

Elev 1161 ft 40.61 °N, 95.86 °W | Updated 15 minutes ago

Overcast
Overcast
41 °F
Feels Like 36 °F
N
8
Wind Variable Wind from SSE

Today
High -- | Low -- °F
--% Chance of Precip.
Yesterday
High -- | Low -- °F
Precip. -- in
7:46 AM 5:03 PM
New Moon, 1% visible
Pressure 29.50 in
Visibility 3.0 miles
Clouds Overcast 400 ft
Windchill 36 °F
Dew Point 41 °F
Humidity 100%
Rainfall 0.57 in
Snow Depth Not available.
UV 1 out of 12
Pollen .10 out of 12
Air Quality Not available.
Flu Activity Not available.
METAR KAFK 221635Z AUTO 15007KT 3SM DZ OVC004 05/05 A2950 RMK AO2 P0001 T00520052

More Conditions Fewer Conditions

Pressure 29.50 in
Visibility 3.0 miles
Clouds Overcast 400 ft
Windchill 36 °F
Dew Point 41 °F
Humidity 100%
Rainfall 0.57 in
Snow Depth Not available.
UV 1 out of 12
Pollen .10 out of 12
Air Quality Not available.
Flu Activity Not available.
METAR KAFK 221635Z AUTO 15007KT 3SM DZ OVC004 05/05 A2950 RMK AO2 P0001 T00520052

More Conditions Fewer Conditions

10-Day Weather Forecast

Almanac

Astronomy

Dec. 22, 2014 Rise Set
Actual Time
Civil Twilight
Nautical Twilight
Astronomical Twilight
Moon
Length of Visible Light
Length of Day
Tomorrow will be .
, % of the Moon is Illuminated

Today's Extremes

State Highs State Lows

Community

WunderPhotos

Upload Photos

1,779,641 photos uploaded!

WunderBlogs® & News

Nearby

Air Quality

  Air Quality AQ Index Pollutant
Not available.

Snow Depth

Station Depth Elevation

Earthquake Activity

City Distance Mag. Time & Date
Minimum magnitude displayed is 2.5.

Coastal Water Temperatures

Place Temperature

Nearby Weather Stations